Terminal Aerodrome Forecast
Issued by NWS Cleveland, OH

Home | Current Version | Previous Version | Graphics & Text | Print | Product List | Glossary On
Versions: 1 2 3 4 5 6 7 8 9 10 11 12 13 14 15 16 17 18
000
FTUS41 KCLE 271501 AAA
TAFYNG
TAF AMD
KYNG 271501Z 2715/2812 13012G20KT 6SM -SHRA BR BKN006 OVC012
      TEMPO 2715/2717 2SM -SHRA BR OVC006
     FM271900 15015G25KT 5SM BR VCTS SCT005 OVC015CB
      TEMPO 2719/2722 2SM -TSRA BR OVC005CB
     FM272300 24012KT P6SM SCT005 OVC012
     FM280600 30012KT 3SM -SHRA BR OVC005=

USA.gov is the U.S. government's official web portal to all federal, state and local government web resources and services.